Impacts METAR Board INFO
IDs:

KSFO - San Francisco Intl, CA, US

Updated at: 1902 UTC 20 Jan 2018
Potential Impact None Slight Moderate High
Time20/07Z 20/08Z 20/09Z 20/10Z 20/11Z 20/12Z 20/13Z 20/14Z 20/15Z 20/16Z 20/17Z 20/18Z 20/19Z
VIS10 10 10 10 10 10 10 10 10 10 10 10 10
CIG-- -- -- -- -- -- -- -- -- -- -- -- --
CoverCLRCLRCLRCLRCLRCLRCLRCLRCLRCLRCLRCLRCLR
FltCatVFRVFRVFRVFRVFRVFRVFRVFRVFRVFRVFRVFRVFR
WX--------------------------
WDir28029026030030029030029032036003040
WSpd6 3 7 9 7 9 8 8 7 5 0 4 4
WGst-- -- -- -- -- -- -- -- -- -- -- -- --
Raw hourly METARs
KSFO 200656Z 28006KT 10SM CLR 09/04 A3011 RMK AO2 SLP197 T00890039
KSFO 200756Z 29003KT 10SM CLR 08/03 A3011 RMK AO2 SLP196 T00830033 401390083
KSFO 200856Z 26007KT 10SM CLR 08/04 A3011 RMK AO2 SLP196 T00830039 51002
KSFO 200956Z 30009KT 10SM CLR 09/04 A3012 RMK AO2 SLP199 T00890039
KSFO 201056Z 30007KT 10SM CLR 09/03 A3012 RMK AO2 SLP199 T00890033
KSFO 201156Z 29009KT 10SM CLR 09/02 A3011 RMK AO2 SLP196 T00890022 10094 20067 50001
KSFO 201256Z 30008KT 10SM CLR 08/02 A3012 RMK AO2 SLP199 T00830022
KSFO 201356Z 29008KT 10SM CLR 08/02 A3014 RMK AO2 SLP204 T00780022
KSFO 201456Z 32007KT 10SM CLR 09/03 A3014 RMK AO2 SLP206 T00890028 51010
KSFO 201556Z 36005KT 10SM CLR 09/04 A3016 RMK AO2 SLP212 T00940039
KSFO 201656Z 00000KT 10SM CLR 10/04 A3018 RMK AO2 SLP219 T01000044
KSFO 201756Z 03004KT 10SM CLR 11/04 A3020 RMK AO2 SLP226 T01060039 10106 20078 53020
KSFO 201856Z 04004KT 10SM CLR 11/04 A3021 RMK AO2 SLP228 T01060044